Lower Makefield, Pennsylvania
Current Conditions -  °F | °C
As of 2:53 AM on Monday 24 Nov 2014 (Local Time) from KTTN Reporting Station
Moderate Rain Moderate Rain  
Wind Chill: 60°   Ceiling: 500
Heat Index: 60°   Visibility: 3mi
Dew Point: 57°   Wind: 16mph
Humidity: 90%   Direction: 160°SSE
Pressure: 29.75"   Gusts: 24mph
Location:  40.1994°N, 74.8145°W
Report Text: KTTN 240753Z AUTO 16014G21KT 3SM RA BR OVC005 16/14 A2975 RMK AO2 CIG 003V009 SLP069 P0014 T01560139
Loading
Personal Weather Stations






























Interactive Weather Map New forecast layout! Learn more

10-Day Weather Forecast

Advertisements
Track Severe Weather on mobile